Time;durP1;ratioP1;P1;durP2;ratioP2;P2;SDS_P1;SDS_P2;PMS_P1;PMS_P2;Temp;Humidity;BMP_temperature;BMP_pressure;BME280_temperature;BME280_humidity;BME280_pressure;Samples;Min_cycle;Max_cycle;Signal;HPM_P1;HPM_P2
2023/06/03 00:01:58;;;;;;;19.42;9.10;;;;;;;12.64;100.00;102029.88;5032523;28;20381;-69
2023/06/03 00:04:24;;;;;;;16.80;9.05;;;;;;;12.63;100.00;102033.41;5032264;28;20025;-69
2023/06/03 00:06:49;;;;;;;12.98;8.68;;;;;;;12.58;100.00;102031.72;5025510;28;20037;-69
2023/06/03 00:09:15;;;;;;;15.15;9.27;;;;;;;12.60;100.00;102036.06;5032604;28;20033;-69
2023/06/03 00:11:42;;;;;;;18.38;9.90;;;;;;;12.57;100.00;102032.63;5026174;28;20028;-70
2023/06/03 00:14:08;;;;;;;15.75;9.38;;;;;;;12.54;100.00;102027.41;5031907;28;20095;-69
2023/06/03 00:16:33;;;;;;;19.88;10.90;;;;;;;12.53;100.00;102033.53;5036075;28;20469;-69
2023/06/03 00:18:59;;;;;;;17.17;9.52;;;;;;;12.50;100.00;102031.81;5024861;28;20087;-69
2023/06/03 00:21:24;;;;;;;16.67;10.23;;;;;;;12.39;100.00;102033.69;5030620;28;20083;-69
2023/06/03 00:23:50;;;;;;;16.75;9.38;;;;;;;12.36;100.00;102032.00;5029370;28;20108;-69
2023/06/03 00:26:16;;;;;;;18.60;9.63;;;;;;;12.31;100.00;102043.38;5031749;28;20029;-69
2023/06/03 00:28:41;;;;;;;15.75;9.98;;;;;;;12.27;100.00;102041.69;5032178;28;20121;-69
2023/06/03 00:31:06;;;;;;;15.15;9.00;;;;;;;12.21;100.00;102047.84;5030031;28;20108;-69
2023/06/03 00:33:32;;;;;;;15.32;10.00;;;;;;;12.22;100.00;102039.13;5031771;28;20040;-69
2023/06/03 00:35:57;;;;;;;18.13;10.05;;;;;;;12.18;100.00;102032.19;5031807;28;20044;-69
2023/06/03 00:38:22;;;;;;;22.20;9.82;;;;;;;12.17;100.00;102035.69;5032335;28;20041;-69
2023/06/03 00:40:47;;;;;;;14.65;9.20;;;;;;;12.18;100.00;102040.03;5031217;28;20030;-69
2023/06/03 00:43:13;;;;;;;14.75;9.60;;;;;;;12.16;100.00;102039.19;5032465;28;20025;-69
2023/06/03 00:45:38;;;;;;;17.27;10.00;;;;;;;12.11;100.00;102038.38;5031839;28;20048;-69
2023/06/03 00:48:03;;;;;;;12.93;9.38;;;;;;;12.11;100.00;102046.22;5029129;28;20172;-69
2023/06/03 00:50:29;;;;;;;21.77;9.88;;;;;;;12.04;100.00;102041.94;5032065;28;20079;-69
2023/06/03 00:52:55;;;;;;;15.95;9.57;;;;;;;12.01;100.00;102042.84;5031679;28;20108;-69
2023/06/03 00:55:20;;;;;;;12.55;8.95;;;;;;;11.98;100.00;102037.66;5031462;28;20025;-69
2023/06/03 00:57:45;;;;;;;17.95;10.45;;;;;;;11.94;100.00;102041.19;5028518;28;20105;-69
2023/06/03 01:00:11;;;;;;;20.08;10.13;;;;;;;11.90;100.00;102042.97;5032089;28;20057;-69
2023/06/03 01:02:38;;;;;;;13.95;9.57;;;;;;;11.85;100.00;102044.72;5031057;28;20037;-70
2023/06/03 01:05:04;;;;;;;20.88;9.75;;;;;;;11.79;100.00;102034.31;5031900;28;20013;-69
2023/06/03 01:07:38;;;;;;;15.60;10.25;;;;;;;11.77;100.00;102043.94;5031943;28;20096;-69
2023/06/03 01:10:19;;;;;;;18.52;9.95;;;;;;;11.77;100.00;102040.41;5030040;28;20029;-69
2023/06/03 01:12:58;;;;;;;18.50;9.68;;;;;;;11.75;100.00;102037.84;5031917;28;20025;-69
2023/06/03 01:15:30;;;;;;;15.60;10.20;;;;;;;11.69;100.00;102038.75;5026060;28;20061;-70
2023/06/03 01:18:00;;;;;;;18.63;10.05;;;;;;;11.66;100.00;102032.69;5031843;28;20029;-70
2023/06/03 01:20:28;;;;;;;17.80;10.20;;;;;;;11.64;100.00;102034.44;5031845;28;20018;-70
2023/06/03 01:23:12;;;;;;;16.77;9.88;;;;;;;11.57;100.00;102032.75;5031029;28;20029;-70
2023/06/03 01:25:41;;;;;;;17.20;9.77;;;;;;;11.60;100.00;102037.97;5023837;28;20123;-70
2023/06/03 01:28:06;;;;;;;15.73;9.70;;;;;;;11.58;100.00;102037.13;5035798;28;20041;-70
2023/06/03 01:30:32;;;;;;;17.77;10.15;;;;;;;11.54;100.00;102033.66;5036219;28;20021;-70
2023/06/03 01:32:58;;;;;;;17.45;9.65;;;;;;;11.53;100.00;102038.91;5035298;28;20037;-69
2023/06/03 01:35:24;;;;;;;20.50;9.73;;;;;;;11.47;100.00;102035.44;5035042;28;20374;-69
2023/06/03 01:37:51;;;;;;;16.98;10.15;;;;;;;11.44;100.00;102037.22;5027876;28;20040;-69
2023/06/03 01:40:17;;;;;;;13.68;9.43;;;;;;;11.39;100.00;102023.34;5032339;28;20082;-69
2023/06/03 01:42:42;;;;;;;17.70;9.88;;;;;;;11.37;100.00;102036.41;5033220;28;20489;-70
2023/06/03 01:45:08;;;;;;;19.05;10.15;;;;;;;11.34;100.00;102025.97;5034376;28;20021;-69
2023/06/03 01:47:34;;;;;;;16.63;9.77;;;;;;;11.28;100.00;102036.50;5034929;28;20044;-69
2023/06/03 01:49:59;;;;;;;18.98;9.77;;;;;;;11.25;100.00;102042.59;5034151;28;20041;-69
2023/06/03 01:52:26;;;;;;;20.95;10.35;;;;;;;11.26;100.00;102040.84;5035369;28;20033;-69
2023/06/03 01:54:51;;;;;;;18.85;10.25;;;;;;;11.23;100.00;102035.66;5034985;28;20128;-69
2023/06/03 01:57:17;;;;;;;19.40;9.80;;;;;;;11.19;100.00;102033.94;5034581;28;20125;-69
2023/06/03 01:59:42;;;;;;;16.02;9.45;;;;;;;11.17;100.00;102033.94;5034796;28;20499;-69
2023/06/03 02:02:07;;;;;;;16.30;9.23;;;;;;;11.06;100.00;102019.25;5035089;28;20452;-69
2023/06/03 02:04:33;;;;;;;18.48;9.68;;;;;;;11.12;100.00;102025.28;5034278;28;20021;-69
2023/06/03 02:06:59;;;;;;;17.48;9.57;;;;;;;11.19;100.00;102029.59;5034546;28;20025;-69
2023/06/03 02:09:27;;;;;;;16.73;9.25;;;;;;;11.17;100.00;102033.94;5035139;28;20056;-69
2023/06/03 02:11:56;;;;;;;18.52;8.95;;;;;;;11.14;100.00;102047.00;5031816;28;20037;-69
2023/06/03 02:14:22;;;;;;;16.25;10.05;;;;;;;11.12;100.00;102037.47;5034773;28;20026;-69
2023/06/03 02:16:48;;;;;;;17.65;9.10;;;;;;;11.17;100.00;102039.16;5034409;28;20040;-69
2023/06/03 02:19:20;;;;;;;20.35;9.40;;;;;;;11.15;100.00;102037.44;5026293;28;20402;-69
2023/06/03 02:21:46;;;;;;;14.45;8.68;;;;;;;11.16;100.00;102028.75;5034639;28;20068;-69
2023/06/03 02:24:14;;;;;;;18.55;9.30;;;;;;;11.17;100.00;102036.53;5029170;28;20052;-69
2023/06/03 02:26:49;;;;;;;15.52;8.45;;;;;;;11.19;100.00;102033.94;5026268;28;20029;-69
2023/06/03 02:29:22;;;;;;;13.50;8.55;;;;;;;11.18;100.00;102030.47;5034158;28;20041;-69
2023/06/03 02:31:48;;;;;;;13.50;7.83;;;;;;;11.20;100.00;102033.06;5029310;28;20030;-69
2023/06/03 02:34:13;;;;;;;15.77;8.85;;;;;;;11.13;100.00;102029.63;5033686;28;20075;-69
2023/06/03 02:36:39;;;;;;;15.52;8.48;;;;;;;11.13;100.00;102031.38;5033396;28;20017;-69
2023/06/03 02:39:04;;;;;;;14.30;8.50;;;;;;;11.13;100.00;102031.38;5034268;28;20064;-69
2023/06/03 02:41:30;;;;;;;15.50;8.88;;;;;;;11.11;100.00;102033.13;5030619;28;20439;-69
2023/06/03 02:43:55;;;;;;;14.35;8.18;;;;;;;11.09;100.00;102032.28;5035592;28;20036;-69
2023/06/03 02:46:20;;;;;;;13.18;8.20;;;;;;;11.09;100.00;102034.88;5035009;28;20037;-69
2023/06/03 02:48:47;;;;;;;13.70;8.60;;;;;;;11.10;100.00;102037.47;5026159;28;20045;-69
2023/06/03 02:51:12;;;;;;;14.30;8.75;;;;;;;11.08;100.00;102031.38;5032510;28;20036;-69
2023/06/03 02:53:37;;;;;;;15.40;8.05;;;;;;;11.05;100.00;102033.16;5030392;28;20377;-70
2023/06/03 02:56:03;;;;;;;16.98;8.73;;;;;;;11.07;100.00;102039.25;5034091;28;20026;-69
2023/06/03 02:58:28;;;;;;;15.20;8.50;;;;;;;11.02;100.00;102047.97;5033856;28;20036;-69
2023/06/03 03:00:53;;;;;;;14.13;8.23;;;;;;;10.99;100.00;102045.38;5033158;28;20484;-69
2023/06/03 03:03:19;;;;;;;12.68;8.20;;;;;;;10.98;100.00;102038.41;5034071;28;20096;-69
2023/06/03 03:05:46;;;;;;;14.30;7.90;;;;;;;10.94;100.00;102036.69;5033516;28;20484;-69
2023/06/03 03:08:11;;;;;;;16.92;7.93;;;;;;;10.92;100.00;102028.03;5032993;28;20041;-69
2023/06/03 03:10:36;;;;;;;15.50;8.48;;;;;;;10.91;100.00;102036.72;5028743;28;20037;-70
2023/06/03 03:13:02;;;;;;;11.55;8.50;;;;;;;10.89;100.00;102030.66;5033497;28;20066;-69
2023/06/03 03:15:27;;;;;;;14.77;8.73;;;;;;;10.84;100.00;102021.13;5032723;28;20022;-69
2023/06/03 03:17:52;;;;;;;12.73;8.32;;;;;;;10.86;100.00;102048.94;5033325;28;20036;-69
2023/06/03 03:20:18;;;;;;;13.80;7.80;;;;;;;10.87;100.00;102041.97;5033690;28;20025;-69
2023/06/03 03:22:46;;;;;;;15.52;8.43;;;;;;;10.83;100.00;102041.13;5032594;28;20462;-69
2023/06/03 03:25:12;;;;;;;11.65;7.72;;;;;;;10.83;100.00;102046.34;5033044;28;20473;-69
2023/06/03 03:27:38;;;;;;;16.15;8.48;;;;;;;10.82;100.00;102044.59;5033094;28;20079;-70
2023/06/03 03:30:05;;;;;;;13.55;8.63;;;;;;;10.83;100.00;102054.16;5030861;28;20482;-69
2023/06/03 03:32:31;;;;;;;13.85;9.05;;;;;;;10.81;100.00;102042.00;5033082;28;20030;-69
2023/06/03 03:35:12;;;;;;;12.02;8.23;;;;;;;10.82;100.00;102049.81;5033183;28;20028;-69
2023/06/03 03:37:38;;;;;;;13.70;7.85;;;;;;;10.78;100.00;102054.16;5027385;28;20116;-69
2023/06/03 03:40:06;;;;;;;15.27;8.23;;;;;;;10.77;100.00;102043.75;5033521;28;20104;-69
2023/06/03 03:42:31;;;;;;;14.55;7.43;;;;;;;10.74;100.00;102049.00;5026141;28;20037;-69
2023/06/03 03:44:59;;;;;;;13.93;8.57;;;;;;;10.73;100.00;102053.34;5039720;28;20044;-69
2023/06/03 03:47:24;;;;;;;13.48;8.25;;;;;;;10.76;100.00;102060.28;5036914;28;20036;-69
2023/06/03 03:49:50;;;;;;;12.90;9.00;;;;;;;10.74;100.00;102054.19;5036643;28;20042;-69
2023/06/03 03:52:28;;;;;;;13.60;7.78;;;;;;;10.71;100.00;102049.88;5034522;28;20447;-69
2023/06/03 03:54:54;;;;;;;13.80;8.60;;;;;;;10.72;100.00;102054.19;5031202;28;20025;-69
2023/06/03 03:57:21;;;;;;;13.93;8.65;;;;;;;10.60;100.00;102040.38;5027656;28;20041;-69
2023/06/03 03:59:46;;;;;;;14.13;7.85;;;;;;;10.68;100.00;102059.44;5030436;28;20357;-69
2023/06/03 04:02:12;;;;;;;13.27;7.53;;;;;;;10.66;100.00;102056.84;5033561;28;20457;-69
2023/06/03 04:04:43;;;;;;;15.68;8.43;;;;;;;10.71;100.00;102052.47;5030349;28;20030;-70
2023/06/03 04:07:11;;;;;;;12.85;8.52;;;;;;;10.74;100.00;102049.84;5024706;28;20021;-69
2023/06/03 04:09:38;;;;;;;12.85;8.30;;;;;;;10.81;100.00;102050.69;5030262;28;20025;-69
2023/06/03 04:12:08;;;;;;;12.18;8.32;;;;;;;10.87;100.00;102057.63;5031641;28;20429;-69
2023/06/03 04:14:48;;;;;;;15.43;8.38;;;;;;;10.90;100.00;102055.00;5029786;28;20048;-69
2023/06/03 04:17:19;;;;;;;11.75;8.18;;;;;;;10.95;100.00;102061.03;5034064;28;20104;-69
2023/06/03 04:19:47;;;;;;;10.93;8.77;;;;;;;10.93;100.00;102060.19;5032979;28;20037;-69
2023/06/03 04:22:19;;;;;;;17.95;8.38;;;;;;;10.96;100.00;102060.19;5027427;28;20068;-69
2023/06/03 04:24:44;;;;;;;14.15;8.35;;;;;;;10.98;100.00;102064.50;5030838;28;20029;-69
2023/06/03 04:27:09;;;;;;;15.65;8.90;;;;;;;11.02;100.00;102066.25;5030282;28;20032;-69
2023/06/03 04:29:35;;;;;;;11.77;8.93;;;;;;;10.99;100.00;102063.63;5031377;28;20079;-69
2023/06/03 04:32:00;;;;;;;14.43;8.75;;;;;;;11.08;100.00;102061.84;5037284;28;20025;-69
2023/06/03 04:34:29;;;;;;;12.82;9.20;;;;;;;11.13;100.00;102067.91;5032153;28;20025;-69
2023/06/03 04:36:54;;;;;;;18.10;9.00;;;;;;;11.15;99.60;102067.03;5033051;28;20140;-69
2023/06/03 04:39:20;;;;;;;12.48;8.65;;;;;;;11.21;100.00;102063.50;5028023;28;20086;-69
2023/06/03 04:41:45;;;;;;;15.15;8.88;;;;;;;11.25;99.87;102063.47;5031793;28;20029;-69
2023/06/03 04:44:11;;;;;;;13.85;8.75;;;;;;;11.31;98.87;102061.69;5031946;28;20030;-69
2023/06/03 04:46:37;;;;;;;15.30;8.25;;;;;;;11.34;98.70;102056.44;5030733;28;20469;-70
2023/06/03 04:49:03;;;;;;;16.30;8.65;;;;;;;11.43;98.70;102066.81;5031840;28;20477;-69
2023/06/03 04:51:33;;;;;;;11.27;8.30;;;;;;;11.43;97.82;102065.06;5031703;28;20030;-69
2023/06/03 04:53:59;;;;;;;18.70;8.77;;;;;;;11.47;96.73;102076.38;5031330;28;20029;-69
2023/06/03 04:56:25;;;;;;;12.13;8.15;;;;;;;11.53;97.00;102072.84;5031774;28;20401;-69
2023/06/03 04:58:57;;;;;;;11.18;8.35;;;;;;;11.52;96.43;102065.91;5032044;28;20041;-69
2023/06/03 05:01:23;;;;;;;17.60;8.07;;;;;;;11.58;95.30;102066.72;5034825;28;20032;-69
2023/06/03 05:03:49;;;;;;;11.73;7.30;;;;;;;11.69;94.53;102072.72;5036006;28;20053;-69
2023/06/03 05:06:14;;;;;;;11.27;7.05;;;;;;;11.75;93.19;102070.94;5036156;28;20048;-69
2023/06/03 05:08:40;;;;;;;10.70;6.82;;;;;;;11.73;92.57;102058.72;5034863;28;20465;-70
2023/06/03 05:11:05;;;;;;;12.70;7.35;;;;;;;11.85;92.53;102065.63;5036179;28;20025;-69
2023/06/03 05:13:31;;;;;;;15.23;6.95;;;;;;;11.88;91.74;102073.44;5035971;28;20028;-69
2023/06/03 05:15:56;;;;;;;11.90;6.70;;;;;;;11.94;91.52;102072.53;5035072;28;20464;-69
2023/06/03 05:18:22;;;;;;;9.50;6.88;;;;;;;11.99;91.05;102075.94;5035880;28;20473;-69
2023/06/03 05:20:47;;;;;;;8.93;6.20;;;;;;;12.06;91.56;102068.91;5035218;28;20052;-69
2023/06/03 05:23:12;;;;;;;12.35;6.63;;;;;;;12.08;89.81;102067.16;5035273;28;20087;-69
2023/06/03 05:25:38;;;;;;;11.60;5.97;;;;;;;12.17;88.61;102067.94;5030071;28;20048;-69
2023/06/03 05:28:03;;;;;;;11.07;6.28;;;;;;;12.22;89.21;102070.50;5035097;28;20033;-69
2023/06/03 05:30:28;;;;;;;9.73;6.00;;;;;;;12.26;87.62;102064.38;5035306;28;20499;-69
2023/06/03 05:32:53;;;;;;;9.02;5.55;;;;;;;12.32;87.42;102074.72;5031368;28;20081;-70
2023/06/03 05:35:19;;;;;;;9.80;5.95;;;;;;;12.37;85.95;102074.69;5034608;28;20112;-69
2023/06/03 05:37:44;;;;;;;12.13;6.30;;;;;;;12.44;85.52;102076.34;5035351;28;20034;-69
2023/06/03 05:40:10;;;;;;;8.18;5.50;;;;;;;12.52;85.46;102071.03;5035425;28;20069;-69
2023/06/03 05:42:35;;;;;;;10.13;6.00;;;;;;;12.58;84.92;102063.97;5034439;28;20067;-69
2023/06/03 05:45:01;;;;;;;10.27;5.55;;;;;;;12.66;83.45;102063.88;5031036;28;20030;-70
2023/06/03 05:47:26;;;;;;;10.95;6.05;;;;;;;12.74;84.60;102067.25;5037053;28;20411;-70
2023/06/03 05:49:51;;;;;;;7.20;5.10;;;;;;;12.77;82.26;102067.22;5034982;28;20548;-69
2023/06/03 05:52:16;;;;;;;8.93;5.40;;;;;;;12.84;81.70;102058.41;5029551;28;20029;-69
2023/06/03 05:54:42;;;;;;;8.07;5.07;;;;;;;12.89;81.47;102067.06;5032980;28;20018;-70
2023/06/03 05:57:07;;;;;;;11.60;4.97;;;;;;;12.95;80.16;102060.00;5033844;28;20045;-69
2023/06/03 05:59:32;;;;;;;10.70;5.40;;;;;;;13.04;79.85;102068.59;5030336;28;20038;-69
2023/06/03 06:01:58;;;;;;;6.70;4.65;;;;;;;13.09;79.25;102069.41;5034863;28;20381;-69
2023/06/03 06:04:23;;;;;;;8.57;4.85;;;;;;;13.15;77.46;102078.06;5029427;28;20361;-69
2023/06/03 06:06:48;;;;;;;9.48;5.18;;;;;;;13.19;77.19;102072.75;5034383;28;20103;-69
2023/06/03 06:09:14;;;;;;;9.00;4.68;;;;;;;13.25;74.76;102072.69;5034754;28;20026;-69
2023/06/03 06:11:39;;;;;;;8.80;4.47;;;;;;;13.31;74.92;102075.22;5032404;28;20025;-70
2023/06/03 06:14:05;;;;;;;7.75;4.72;;;;;;;13.38;74.20;102069.91;5034908;28;20022;-69
2023/06/03 06:16:30;;;;;;;7.97;4.38;;;;;;;13.43;74.38;102065.44;5034657;28;20032;-69
2023/06/03 06:18:57;;;;;;;9.20;4.47;;;;;;;13.49;72.64;102068.81;5031905;28;20135;-69
2023/06/03 06:21:22;;;;;;;7.57;4.15;;;;;;;13.57;71.69;102073.97;5034622;28;20052;-69
2023/06/03 06:23:47;;;;;;;9.40;4.32;;;;;;;13.61;70.51;102070.41;5036790;28;20473;-69
2023/06/03 06:26:16;;;;;;;7.70;4.50;;;;;;;13.75;71.01;102081.50;5037665;28;20040;-69
2023/06/03 06:28:42;;;;;;;8.38;4.30;;;;;;;13.80;70.59;102070.94;5030582;28;20030;-69
2023/06/03 06:31:09;;;;;;;8.25;4.25;;;;;;;13.88;69.84;102078.69;5034890;28;20523;-69
2023/06/03 06:33:35;;;;;;;10.10;4.70;;;;;;;13.92;69.34;102081.19;5032572;28;20097;-69
2023/06/03 06:36:21;;;;;;;8.23;4.13;;;;;;;14.02;70.21;102082.75;5035818;28;20422;-69
2023/06/03 06:38:47;;;;;;;7.95;4.18;;;;;;;14.09;68.29;102078.28;5016822;28;20048;-70
2023/06/03 06:41:14;;;;;;;8.25;4.10;;;;;;;14.17;68.43;102080.78;5028963;28;20025;-69
2023/06/03 06:43:39;;;;;;;9.27;3.63;;;;;;;14.26;65.73;102076.22;5034041;28;20052;-69
2023/06/03 06:46:05;;;;;;;6.10;3.65;;;;;;;14.33;65.17;102076.97;5033605;28;20481;-69
2023/06/03 06:48:33;;;;;;;6.32;3.97;;;;;;;14.39;65.90;102070.75;5034042;28;20580;-70
2023/06/03 06:51:01;;;;;;;7.88;3.80;;;;;;;14.48;64.93;102074.00;5034249;28;20031;-69
2023/06/03 06:53:28;;;;;;;8.07;4.03;;;;;;;14.57;62.63;102082.66;5032428;28;20064;-70
2023/06/03 06:56:01;;;;;;;7.80;4.18;;;;;;;14.63;61.76;102083.38;5030342;28;20540;-69
2023/06/03 06:58:32;;;;;;;7.22;3.47;;;;;;;14.69;63.13;102085.88;5028247;28;20051;-69
2023/06/03 07:01:00;;;;;;;6.00;3.72;;;;;;;14.78;62.63;102076.97;5032394;28;20037;-70
2023/06/03 07:03:26;;;;;;;5.45;3.30;;;;;;;14.87;61.54;102082.00;5033984;28;20032;-70
2023/06/03 07:05:53;;;;;;;5.38;3.50;;;;;;;14.98;59.89;102080.00;5032996;28;20026;-69
2023/06/03 07:08:20;;;;;;;5.82;3.97;;;;;;;15.05;59.02;102083.38;5032790;28;20063;-69
2023/06/03 07:10:46;;;;;;;5.85;3.55;;;;;;;15.10;59.03;102072.75;5033300;28;20489;-70
2023/06/03 07:13:13;;;;;;;7.03;3.70;;;;;;;15.11;57.55;102077.97;5033721;28;20064;-69
2023/06/03 07:15:39;;;;;;;4.95;3.10;;;;;;;15.19;57.56;102073.41;5029330;28;20018;-69
2023/06/03 07:18:05;;;;;;;7.15;3.30;;;;;;;15.20;56.42;102064.63;5033945;28;20033;-70
2023/06/03 07:20:36;;;;;;;6.05;3.17;;;;;;;15.36;56.22;102075.63;5032923;28;20067;-69
2023/06/03 07:23:08;;;;;;;9.52;3.40;;;;;;;15.47;57.56;102070.13;5032797;28;20592;-70
2023/06/03 07:25:42;;;;;;;7.90;3.30;;;;;;;15.61;55.04;102069.78;5033529;28;20532;-69
2023/06/03 07:28:29;;;;;;;7.82;2.63;;;;;;;15.72;54.03;102073.03;5032054;28;20033;-70
2023/06/03 07:30:58;;;;;;;6.38;2.70;;;;;;;15.82;52.50;102068.41;5032280;28;20400;-70
2023/06/03 07:33:27;;;;;;;4.90;2.60;;;;;;;15.91;52.77;102066.41;5033678;28;20051;-69
2023/06/03 07:35:57;;;;;;;3.70;2.22;;;;;;;16.06;53.15;102074.81;5032189;28;20013;-69
2023/06/03 07:39:21;;;;;;;5.72;2.63;;;;;;;16.17;53.46;102067.47;5033351;28;20056;-69
2023/06/03 07:41:51;;;;;;;7.82;2.58;;;;;;;16.35;51.21;102066.13;4946938;29;20449;-69
2023/06/03 07:44:25;;;;;;;4.15;2.28;;;;;;;16.46;49.34;102065.81;4952804;29;20098;-69
2023/06/03 07:47:00;;;;;;;5.95;2.22;;;;;;;16.54;48.83;102067.28;4991727;28;20110;-69
2023/06/03 07:49:25;;;;;;;5.18;2.17;;;;;;;16.58;47.56;102073.34;5031915;28;20063;-69
2023/06/03 07:51:51;;;;;;;4.75;2.45;;;;;;;16.60;47.13;102082.91;5033082;28;20108;-70
2023/06/03 07:54:18;;;;;;;4.68;2.33;;;;;;;16.67;46.99;102066.94;5032893;28;20022;-69
2023/06/03 07:56:44;;;;;;;4.30;2.17;;;;;;;16.82;46.57;102074.41;5031956;28;20468;-70
2023/06/03 07:59:14;;;;;;;5.57;2.38;;;;;;;16.96;46.78;102076.63;5033110;28;20040;-69
2023/06/03 08:01:40;;;;;;;8.27;2.70;;;;;;;17.08;46.46;102074.50;5032551;28;20021;-70
2023/06/03 08:04:34;;;;;;;6.38;2.70;;;;;;;17.17;45.71;102077.75;5032530;28;20037;-70
2023/06/03 08:07:00;;;;;;;5.70;2.50;;;;;;;17.23;44.80;102067.00;5031468;28;20358;-70
2023/06/03 08:09:36;;;;;;;5.13;2.63;;;;;;;17.33;46.22;102073.72;5032572;28;20029;-70
2023/06/03 08:12:06;;;;;;;6.55;2.90;;;;;;;17.46;44.52;102074.16;5030318;28;20021;-70
2023/06/03 08:14:37;;;;;;;6.47;2.70;;;;;;;17.57;42.56;102072.06;5032848;28;20022;-70
2023/06/03 08:17:11;;;;;;;4.65;2.30;;;;;;;17.67;42.80;102067.34;5029785;28;20035;-70
2023/06/03 08:19:37;;;;;;;3.08;1.88;;;;;;;17.75;42.64;102073.19;5032454;28;20421;-70
2023/06/03 08:22:19;;;;;;;5.70;2.55;;;;;;;17.82;40.74;102058.06;5032327;28;20033;-69
2023/06/03 08:24:44;;;;;;;10.32;2.08;;;;;;;17.85;39.84;102063.22;5028505;28;20037;-70
2023/06/03 08:27:10;;;;;;;3.90;1.75;;;;;;;17.88;39.45;102061.34;5032321;28;20404;-70
2023/06/03 08:29:35;;;;;;;4.32;2.13;;;;;;;17.97;39.51;102068.09;5032337;28;20040;-70
2023/06/03 08:32:00;;;;;;;3.95;1.83;;;;;;;18.01;39.09;102075.81;5031330;28;20082;-70
2023/06/03 08:34:25;;;;;;;8.43;1.92;;;;;;;18.12;39.28;102066.69;5031442;28;20397;-70
2023/06/03 08:36:51;;;;;;;5.47;1.98;;;;;;;18.25;38.66;102067.97;5032303;28;20065;-70
2023/06/03 08:39:16;;;;;;;6.72;1.48;;;;;;;18.33;38.20;102063.25;5031303;28;20393;-70
2023/06/03 08:41:44;;;;;;;3.90;1.77;;;;;;;18.41;39.26;102068.25;5032142;28;20034;-70
2023/06/03 08:44:19;;;;;;;4.47;1.73;;;;;;;18.43;37.98;102064.66;5032187;28;20029;-69
2023/06/03 08:47:06;;;;;;;7.43;1.65;;;;;;;18.47;37.79;102066.28;5025145;28;20038;-70
2023/06/03 08:49:53;;;;;;;4.65;1.45;;;;;;;18.57;38.81;102065.91;5031829;28;20102;-70
2023/06/03 08:52:19;;;;;;;2.80;1.60;;;;;;;18.67;37.10;102067.28;5031326;28;20026;-69
2023/06/03 08:54:46;;;;;;;5.95;1.80;;;;;;;18.69;37.23;102057.53;5031633;28;20027;-70
2023/06/03 08:57:19;;;;;;;2.70;1.70;;;;;;;18.61;37.68;102036.72;5032158;28;20485;-70
2023/06/03 08:59:46;;;;;;;5.33;1.70;;;;;;;18.88;37.69;102068.28;5026428;28;20040;-70
2023/06/03 09:02:12;;;;;;;5.40;1.90;;;;;;;18.90;36.34;102064.69;5032066;28;20272;-70
2023/06/03 09:04:38;;;;;;;5.78;1.65;;;;;;;19.00;37.66;102064.28;5031995;28;20013;-70
2023/06/03 09:07:05;;;;;;;9.52;2.13;;;;;;;19.13;37.19;102058.47;5031175;28;20026;-70
2023/06/03 09:09:30;;;;;;;5.20;1.85;;;;;;;19.35;35.96;102060.25;5032195;28;20030;-70
2023/06/03 09:11:57;;;;;;;7.32;1.70;;;;;;;19.47;36.40;102064.19;5031548;28;20083;-70
2023/06/03 09:14:24;;;;;;;5.68;2.05;;;;;;;19.51;35.91;102055.19;5031472;28;20033;-70
2023/06/03 09:16:50;;;;;;;5.63;1.60;;;;;;;19.65;35.61;102047.56;5031422;28;20489;-70
2023/06/03 09:19:16;;;;;;;10.10;2.30;;;;;;;19.71;34.83;102062.31;5032071;28;20136;-70
2023/06/03 09:21:44;;;;;;;4.25;1.70;;;;;;;19.76;33.83;102063.00;5030972;28;20533;-70
2023/06/03 09:24:11;;;;;;;3.70;1.67;;;;;;;19.62;33.87;102058.25;5028237;28;20026;-70
2023/06/03 09:26:37;;;;;;;3.13;1.40;;;;;;;19.68;32.93;102065.09;5031757;28;20022;-70
2023/06/03 09:29:02;;;;;;;7.15;1.50;;;;;;;19.78;33.81;102064.66;5031025;28;20388;-70
2023/06/03 09:31:28;;;;;;;5.15;1.58;;;;;;;19.84;33.57;102064.38;5031471;28;20056;-70
2023/06/03 09:33:54;;;;;;;3.03;1.30;;;;;;;19.82;32.26;102068.03;5031510;28;20029;-70
2023/06/03 09:36:19;;;;;;;6.97;1.38;;;;;;;19.84;31.99;102058.22;5029667;28;20025;-70
2023/06/03 09:38:54;;;;;;;2.97;1.52;;;;;;;19.95;33.31;102071.00;5031822;28;20041;-70
2023/06/03 09:41:23;;;;;;;3.30;1.60;;;;;;;20.06;32.77;102064.31;5030741;28;20469;-70
2023/06/03 09:44:08;;;;;;;3.33;1.30;;;;;;;20.05;32.36;102064.38;5031570;28;20041;-69
2023/06/03 09:46:34;;;;;;;4.65;1.50;;;;;;;20.04;30.92;102060.84;5032324;28;20422;-70
2023/06/03 09:49:19;;;;;;;3.33;1.20;;;;;;;20.12;31.51;102060.53;5033958;28;20085;-69
2023/06/03 09:51:46;;;;;;;2.47;1.20;;;;;;;20.19;31.74;102058.47;5034248;28;20092;-70
2023/06/03 09:54:15;;;;;;;3.63;1.40;;;;;;;20.39;32.19;102054.94;5035210;28;20484;-70
2023/06/03 09:56:42;;;;;;;3.97;1.40;;;;;;;20.46;31.84;102046.63;5032382;28;20044;-70
2023/06/03 09:59:23;;;;;;;2.97;1.27;;;;;;;20.60;32.12;102067.22;5035421;28;20029;-70
2023/06/03 10:01:50;;;;;;;4.03;1.33;;;;;;;20.56;30.34;102055.03;5032988;28;20465;-70
2023/06/03 10:04:37;;;;;;;4.25;1.65;;;;;;;20.63;31.06;102056.47;5034230;28;20031;-69
2023/06/03 10:07:13;;;;;;;5.57;1.40;;;;;;;20.72;31.13;102064.00;5016720;28;20508;-69
2023/06/03 10:09:44;;;;;;;4.05;1.40;;;;;;;20.80;29.44;102066.31;5034100;28;20025;-70
2023/06/03 10:12:10;;;;;;;3.83;1.30;;;;;;;20.88;29.38;102053.53;5034793;28;20156;-69
2023/06/03 10:14:46;;;;;;;7.50;1.52;;;;;;;21.12;31.35;102061.22;5034922;28;20104;-69
2023/06/03 10:17:13;;;;;;;2.13;1.13;;;;;;;21.15;29.23;102056.63;5033959;28;20055;-70
2023/06/03 10:19:44;;;;;;;3.50;1.42;;;;;;;21.25;29.68;102055.28;5034226;28;20465;-70
2023/06/03 10:22:12;;;;;;;4.45;1.10;;;;;;;21.33;29.24;102054.03;5035057;28;20026;-69
2023/06/03 10:24:44;;;;;;;3.75;1.70;;;;;;;21.40;28.75;102044.88;5029507;28;20354;-70
2023/06/03 10:27:11;;;;;;;3.25;1.20;;;;;;;21.55;28.93;102057.38;5027930;28;20039;-70
2023/06/03 10:29:37;;;;;;;4.20;1.42;;;;;;;21.53;28.95;102048.63;5034307;28;20041;-70
2023/06/03 10:32:05;;;;;;;3.78;1.55;;;;;;;21.61;28.58;102050.88;5033442;28;20037;-70
2023/06/03 10:34:34;;;;;;;2.88;1.40;;;;;;;21.67;28.94;102047.91;5034115;28;20030;-70
2023/06/03 10:37:01;;;;;;;5.10;1.35;;;;;;;21.78;29.20;102034.97;5034000;28;20488;-70
2023/06/03 10:39:29;;;;;;;6.75;1.70;;;;;;;21.97;28.57;102051.66;5033533;28;20029;-70
2023/06/03 10:42:05;;;;;;;3.47;1.60;;;;;;;21.90;29.27;102050.25;5033988;28;20540;-70
2023/06/03 10:44:31;;;;;;;4.82;1.40;;;;;;;21.81;29.59;102049.84;5029550;28;20041;-70
2023/06/03 10:47:04;;;;;;;3.70;1.40;;;;;;;21.89;29.11;102048.53;5034237;28;20350;-70
2023/06/03 10:50:02;;;;;;;2.05;1.30;;;;;;;21.97;29.46;102049.00;5033807;28;20045;-70
2023/06/03 10:52:43;;;;;;;2.75;1.27;;;;;;;22.08;28.69;102040.47;4997792;28;20055;-70
2023/06/03 10:55:33;;;;;;;4.13;1.17;;;;;;;22.14;28.78;102048.13;5034025;28;20456;-70
2023/06/03 10:58:34;;;;;;;6.15;1.45;;;;;;;22.31;29.01;102049.03;5027777;28;20405;-70
2023/06/03 11:01:04;;;;;;;3.08;1.25;;;;;;;22.37;28.20;102043.41;4947845;29;20046;-70
2023/06/03 11:03:31;;;;;;;3.22;1.33;;;;;;;22.39;28.17;102045.00;5012201;28;20029;-70
2023/06/03 11:06:18;;;;;;;3.25;1.40;;;;;;;22.60;28.18;102052.78;5032993;28;20479;-70
2023/06/03 11:08:57;;;;;;;3.75;1.30;;;;;;;22.67;27.81;102040.84;5033428;28;20037;-70
2023/06/03 11:11:53;;;;;;;2.88;1.45;;;;;;;22.79;26.94;102041.97;5034151;28;20064;-70
2023/06/03 11:14:27;;;;;;;3.22;1.48;;;;;;;22.96;27.09;102039.25;5028245;28;20033;-70
2023/06/03 11:16:58;;;;;;;4.93;1.30;;;;;;;22.95;26.26;102042.84;5033175;28;20040;-70
2023/06/03 11:19:27;;;;;;;2.05;1.10;;;;;;;22.98;25.13;102032.03;5033860;28;20048;-69
2023/06/03 11:21:52;;;;;;;2.50;1.10;;;;;;;23.10;26.99;102044.63;5032674;28;20040;-69
2023/06/03 11:24:42;;;;;;;3.28;1.27;;;;;;;23.22;26.23;102047.56;5033500;28;20440;-70